sensor_id;sensor_type;location;lat;lon;timestamp;pressure;altitude;pressure_sealevel;temperature
76895;BMP280;65855;42.030;13.078;2023-11-18T00:01:43;93570.81;;;3.42
76895;BMP280;65855;42.030;13.078;2023-11-18T00:04:10;93573.34;;;3.47
76895;BMP280;65855;42.030;13.078;2023-11-18T00:06:44;93578.53;;;3.19
76895;BMP280;65855;42.030;13.078;2023-11-18T00:09:13;93582.25;;;3.17
76895;BMP280;65855;42.030;13.078;2023-11-18T00:11:42;93578.50;;;3.40
76895;BMP280;65855;42.030;13.078;2023-11-18T00:14:08;93589.97;;;3.88
76895;BMP280;65855;42.030;13.078;2023-11-18T00:16:35;93609.72;;;3.22
76895;BMP280;65855;42.030;13.078;2023-11-18T00:19:02;93607.28;;;3.06
76895;BMP280;65855;42.030;13.078;2023-11-18T00:21:30;93582.81;;;2.82
76895;BMP280;65855;42.030;13.078;2023-11-18T00:23:55;93569.59;;;2.97
76895;BMP280;65855;42.030;13.078;2023-11-18T00:26:21;93571.94;;;2.87
76895;BMP280;65855;42.030;13.078;2023-11-18T00:28:46;93571.16;;;3.03
76895;BMP280;65855;42.030;13.078;2023-11-18T00:31:14;93583.69;;;2.71
76895;BMP280;65855;42.030;13.078;2023-11-18T00:33:39;93565.34;;;2.77
76895;BMP280;65855;42.030;13.078;2023-11-18T00:36:05;93570.56;;;2.96
76895;BMP280;65855;42.030;13.078;2023-11-18T00:38:32;93574.50;;;3.13
76895;BMP280;65855;42.030;13.078;2023-11-18T00:40:57;93575.16;;;3.04
76895;BMP280;65855;42.030;13.078;2023-11-18T00:43:22;93577.97;;;2.91
76895;BMP280;65855;42.030;13.078;2023-11-18T00:45:48;93583.28;;;2.79
76895;BMP280;65855;42.030;13.078;2023-11-18T00:48:13;93578.91;;;2.86
76895;BMP280;65855;42.030;13.078;2023-11-18T00:50:40;93572.53;;;2.57
76895;BMP280;65855;42.030;13.078;2023-11-18T00:53:05;93573.06;;;2.59
76895;BMP280;65855;42.030;13.078;2023-11-18T00:55:31;93560.88;;;2.79
76895;BMP280;65855;42.030;13.078;2023-11-18T00:57:57;93570.78;;;2.74
76895;BMP280;65855;42.030;13.078;2023-11-18T01:00:23;93563.47;;;2.30
76895;BMP280;65855;42.030;13.078;2023-11-18T01:02:51;93560.22;;;2.46
76895;BMP280;65855;42.030;13.078;2023-11-18T01:05:18;93551.69;;;2.58
76895;BMP280;65855;42.030;13.078;2023-11-18T01:07:44;93550.88;;;2.74
76895;BMP280;65855;42.030;13.078;2023-11-18T01:10:10;93572.75;;;2.72
76895;BMP280;65855;42.030;13.078;2023-11-18T01:12:36;93572.50;;;2.52
76895;BMP280;65855;42.030;13.078;2023-11-18T01:15:02;93585.34;;;2.65
76895;BMP280;65855;42.030;13.078;2023-11-18T01:17:28;93587.78;;;2.82
76895;BMP280;65855;42.030;13.078;2023-11-18T01:19:54;93580.16;;;2.67
76895;BMP280;65855;42.030;13.078;2023-11-18T01:22:20;93588.75;;;2.60
76895;BMP280;65855;42.030;13.078;2023-11-18T01:24:46;93598.06;;;2.69
76895;BMP280;65855;42.030;13.078;2023-11-18T01:27:12;93603.81;;;2.32
76895;BMP280;65855;42.030;13.078;2023-11-18T01:29:38;93591.28;;;2.11
76895;BMP280;65855;42.030;13.078;2023-11-18T01:32:07;93580.28;;;2.07
76895;BMP280;65855;42.030;13.078;2023-11-18T01:34:36;93583.34;;;2.30
76895;BMP280;65855;42.030;13.078;2023-11-18T01:37:04;93594.88;;;2.36
76895;BMP280;65855;42.030;13.078;2023-11-18T01:39:32;93592.88;;;2.01
76895;BMP280;65855;42.030;13.078;2023-11-18T01:41:58;93590.06;;;1.97
76895;BMP280;65855;42.030;13.078;2023-11-18T01:44:24;93586.09;;;2.13
76895;BMP280;65855;42.030;13.078;2023-11-18T01:46:50;93585.00;;;2.25
76895;BMP280;65855;42.030;13.078;2023-11-18T01:49:16;93594.91;;;2.20
76895;BMP280;65855;42.030;13.078;2023-11-18T01:51:44;93604.91;;;2.25
76895;BMP280;65855;42.030;13.078;2023-11-18T01:54:12;93608.97;;;2.31
76895;BMP280;65855;42.030;13.078;2023-11-18T01:56:44;93605.91;;;2.40
76895;BMP280;65855;42.030;13.078;2023-11-18T01:59:11;93606.34;;;2.53
76895;BMP280;65855;42.030;13.078;2023-11-18T02:01:46;93621.06;;;2.39
76895;BMP280;65855;42.030;13.078;2023-11-18T02:04:14;93622.84;;;2.11
76895;BMP280;65855;42.030;13.078;2023-11-18T02:06:39;93624.97;;;2.35
76895;BMP280;65855;42.030;13.078;2023-11-18T02:09:05;93638.38;;;2.34
76895;BMP280;65855;42.030;13.078;2023-11-18T02:11:36;93631.44;;;2.36
76895;BMP280;65855;42.030;13.078;2023-11-18T02:14:07;93642.22;;;2.25
76895;BMP280;65855;42.030;13.078;2023-11-18T02:16:37;93637.75;;;1.94
76895;BMP280;65855;42.030;13.078;2023-11-18T02:19:07;93639.88;;;2.35
76895;BMP280;65855;42.030;13.078;2023-11-18T02:21:36;93637.19;;;2.20
76895;BMP280;65855;42.030;13.078;2023-11-18T02:24:03;93659.59;;;2.09
76895;BMP280;65855;42.030;13.078;2023-11-18T02:26:29;93647.84;;;2.04
76895;BMP280;65855;42.030;13.078;2023-11-18T02:28:55;93646.72;;;1.95
76895;BMP280;65855;42.030;13.078;2023-11-18T02:31:29;93649.81;;;2.18
76895;BMP280;65855;42.030;13.078;2023-11-18T02:34:08;93652.53;;;2.17
76895;BMP280;65855;42.030;13.078;2023-11-18T02:36:39;93668.66;;;2.31
76895;BMP280;65855;42.030;13.078;2023-11-18T02:39:12;93671.53;;;2.07
76895;BMP280;65855;42.030;13.078;2023-11-18T02:41:43;93672.09;;;1.97
76895;BMP280;65855;42.030;13.078;2023-11-18T02:44:13;93677.09;;;2.14
76895;BMP280;65855;42.030;13.078;2023-11-18T02:46:43;93674.38;;;2.15
76895;BMP280;65855;42.030;13.078;2023-11-18T02:49:09;93692.06;;;2.02
76895;BMP280;65855;42.030;13.078;2023-11-18T02:51:35;93695.00;;;1.99
76895;BMP280;65855;42.030;13.078;2023-11-18T02:54:05;93689.38;;;1.76
76895;BMP280;65855;42.030;13.078;2023-11-18T02:56:32;93675.25;;;1.66
76895;BMP280;65855;42.030;13.078;2023-11-18T02:58:57;93675.97;;;1.77
76895;BMP280;65855;42.030;13.078;2023-11-18T03:01:23;93663.75;;;1.76
76895;BMP280;65855;42.030;13.078;2023-11-18T03:03:50;93669.75;;;1.64
76895;BMP280;65855;42.030;13.078;2023-11-18T03:06:16;93665.28;;;1.38
76895;BMP280;65855;42.030;13.078;2023-11-18T03:08:41;93667.66;;;1.44
76895;BMP280;65855;42.030;13.078;2023-11-18T03:11:07;93671.63;;;1.45
76895;BMP280;65855;42.030;13.078;2023-11-18T03:13:34;93670.59;;;1.69
76895;BMP280;65855;42.030;13.078;2023-11-18T03:16:00;93671.88;;;1.33
76895;BMP280;65855;42.030;13.078;2023-11-18T03:18:25;93670.84;;;1.29
76895;BMP280;65855;42.030;13.078;2023-11-18T03:20:51;93671.75;;;1.78
76895;BMP280;65855;42.030;13.078;2023-11-18T03:23:17;93680.50;;;1.80
76895;BMP280;65855;42.030;13.078;2023-11-18T03:25:42;93695.91;;;1.93
76895;BMP280;65855;42.030;13.078;2023-11-18T03:28:09;93701.75;;;1.88
76895;BMP280;65855;42.030;13.078;2023-11-18T03:30:35;93707.25;;;1.90
76895;BMP280;65855;42.030;13.078;2023-11-18T03:33:02;93701.94;;;1.86
76895;BMP280;65855;42.030;13.078;2023-11-18T03:35:29;93710.63;;;1.84
76895;BMP280;65855;42.030;13.078;2023-11-18T03:37:55;93713.81;;;1.95
76895;BMP280;65855;42.030;13.078;2023-11-18T03:40:20;93719.78;;;1.56
76895;BMP280;65855;42.030;13.078;2023-11-18T03:42:45;93712.69;;;1.37
76895;BMP280;65855;42.030;13.078;2023-11-18T03:45:13;93713.97;;;1.50
76895;BMP280;65855;42.030;13.078;2023-11-18T03:47:43;93721.94;;;1.52
76895;BMP280;65855;42.030;13.078;2023-11-18T03:50:09;93723.91;;;1.50
76895;BMP280;65855;42.030;13.078;2023-11-18T03:52:36;93727.13;;;1.51
76895;BMP280;65855;42.030;13.078;2023-11-18T03:55:03;93728.47;;;1.31
76895;BMP280;65855;42.030;13.078;2023-11-18T03:57:29;93722.41;;;1.38
76895;BMP280;65855;42.030;13.078;2023-11-18T03:59:55;93727.06;;;1.23
76895;BMP280;65855;42.030;13.078;2023-11-18T04:02:20;93730.94;;;1.42
76895;BMP280;65855;42.030;13.078;2023-11-18T04:04:46;93723.38;;;1.37
76895;BMP280;65855;42.030;13.078;2023-11-18T04:07:11;93728.91;;;1.05
76895;BMP280;65855;42.030;13.078;2023-11-18T04:09:36;93716.06;;;1.19
76895;BMP280;65855;42.030;13.078;2023-11-18T04:12:02;93716.81;;;1.31
76895;BMP280;65855;42.030;13.078;2023-11-18T04:14:28;93727.38;;;1.27
76895;BMP280;65855;42.030;13.078;2023-11-18T04:16:53;93729.84;;;1.27
76895;BMP280;65855;42.030;13.078;2023-11-18T04:19:20;93724.25;;;1.31
76895;BMP280;65855;42.030;13.078;2023-11-18T04:21:47;93732.84;;;1.51
76895;BMP280;65855;42.030;13.078;2023-11-18T04:24:14;93742.59;;;1.42
76895;BMP280;65855;42.030;13.078;2023-11-18T04:26:40;93735.38;;;1.29
76895;BMP280;65855;42.030;13.078;2023-11-18T04:29:06;93744.44;;;0.90
76895;BMP280;65855;42.030;13.078;2023-11-18T04:31:31;93734.00;;;1.10
76895;BMP280;65855;42.030;13.078;2023-11-18T04:33:56;93737.53;;;1.14
76895;BMP280;65855;42.030;13.078;2023-11-18T04:36:22;93742.28;;;1.27
76895;BMP280;65855;42.030;13.078;2023-11-18T04:38:48;93739.91;;;1.32
76895;BMP280;65855;42.030;13.078;2023-11-18T04:41:15;93745.38;;;1.45
76895;BMP280;65855;42.030;13.078;2023-11-18T04:43:40;93765.59;;;1.48
76895;BMP280;65855;42.030;13.078;2023-11-18T04:46:07;93751.56;;;1.43
76895;BMP280;65855;42.030;13.078;2023-11-18T04:48:33;93768.16;;;1.53
76895;BMP280;65855;42.030;13.078;2023-11-18T04:50:59;93763.75;;;1.55
76895;BMP280;65855;42.030;13.078;2023-11-18T04:53:25;93772.63;;;1.06
76895;BMP280;65855;42.030;13.078;2023-11-18T04:55:51;93762.59;;;1.24
76895;BMP280;65855;42.030;13.078;2023-11-18T04:58:16;93765.69;;;1.08
76895;BMP280;65855;42.030;13.078;2023-11-18T05:00:42;93762.81;;;1.11
76895;BMP280;65855;42.030;13.078;2023-11-18T05:03:08;93762.69;;;1.06
76895;BMP280;65855;42.030;13.078;2023-11-18T05:05:38;93762.56;;;1.01
76895;BMP280;65855;42.030;13.078;2023-11-18T05:08:04;93766.25;;;0.88
76895;BMP280;65855;42.030;13.078;2023-11-18T05:10:34;93764.28;;;0.90
76895;BMP280;65855;42.030;13.078;2023-11-18T05:13:00;93758.91;;;1.15
76895;BMP280;65855;42.030;13.078;2023-11-18T05:15:26;93770.56;;;1.15
76895;BMP280;65855;42.030;13.078;2023-11-18T05:17:52;93773.66;;;0.65
76895;BMP280;65855;42.030;13.078;2023-11-18T05:20:19;93756.19;;;0.60
76895;BMP280;65855;42.030;13.078;2023-11-18T05:22:44;93755.91;;;0.91
76895;BMP280;65855;42.030;13.078;2023-11-18T05:25:10;93762.91;;;1.05
76895;BMP280;65855;42.030;13.078;2023-11-18T05:27:36;93757.06;;;0.99
76895;BMP280;65855;42.030;13.078;2023-11-18T05:30:02;93766.03;;;1.23
76895;BMP280;65855;42.030;13.078;2023-11-18T05:32:28;93769.59;;;0.93
76895;BMP280;65855;42.030;13.078;2023-11-18T05:34:54;93777.88;;;0.76
76895;BMP280;65855;42.030;13.078;2023-11-18T05:37:21;93768.69;;;0.65
76895;BMP280;65855;42.030;13.078;2023-11-18T05:39:47;93761.28;;;0.88
76895;BMP280;65855;42.030;13.078;2023-11-18T05:42:14;93770.31;;;0.82
76895;BMP280;65855;42.030;13.078;2023-11-18T05:44:41;93761.31;;;1.10
76895;BMP280;65855;42.030;13.078;2023-11-18T05:47:08;93777.47;;;1.24
76895;BMP280;65855;42.030;13.078;2023-11-18T05:49:36;93781.88;;;0.88
76895;BMP280;65855;42.030;13.078;2023-11-18T05:52:02;93778.53;;;1.28
76895;BMP280;65855;42.030;13.078;2023-11-18T05:54:27;93785.13;;;1.34
76895;BMP280;65855;42.030;13.078;2023-11-18T05:56:53;93796.13;;;1.15
76895;BMP280;65855;42.030;13.078;2023-11-18T05:59:19;93799.25;;;0.88
76895;BMP280;65855;42.030;13.078;2023-11-18T06:01:44;93790.53;;;1.08
76895;BMP280;65855;42.030;13.078;2023-11-18T06:04:09;93793.34;;;1.23
76895;BMP280;65855;42.030;13.078;2023-11-18T06:06:35;93804.22;;;1.22
76895;BMP280;65855;42.030;13.078;2023-11-18T06:09:02;93812.44;;;1.34
76895;BMP280;65855;42.030;13.078;2023-11-18T06:11:34;93805.63;;;1.41
76895;BMP280;65855;42.030;13.078;2023-11-18T06:14:00;93831.84;;;1.14
76895;BMP280;65855;42.030;13.078;2023-11-18T06:16:26;93826.69;;;1.04
76895;BMP280;65855;42.030;13.078;2023-11-18T06:18:56;93830.03;;;0.98
76895;BMP280;65855;42.030;13.078;2023-11-18T06:21:26;93823.97;;;0.95
76895;BMP280;65855;42.030;13.078;2023-11-18T06:23:55;93836.47;;;0.88
76895;BMP280;65855;42.030;13.078;2023-11-18T06:26:21;93823.63;;;1.02
76895;BMP280;65855;42.030;13.078;2023-11-18T06:28:48;93824.97;;;1.16
76895;BMP280;65855;42.030;13.078;2023-11-18T06:31:14;93833.38;;;1.15
76895;BMP280;65855;42.030;13.078;2023-11-18T06:33:44;93828.19;;;1.05
76895;BMP280;65855;42.030;13.078;2023-11-18T06:38:46;93835.97;;;0.97
76895;BMP280;65855;42.030;13.078;2023-11-18T06:41:16;93830.03;;;1.10
76895;BMP280;65855;42.030;13.078;2023-11-18T06:43:43;93833.34;;;0.93
76895;BMP280;65855;42.030;13.078;2023-11-18T06:48:54;93845.91;;;1.20
76895;BMP280;65855;42.030;13.078;2023-11-18T06:51:23;93859.53;;;1.29
76895;BMP280;65855;42.030;13.078;2023-11-18T06:53:58;93856.72;;;1.59
76895;BMP280;65855;42.030;13.078;2023-11-18T06:56:24;93849.63;;;2.51
76895;BMP280;65855;42.030;13.078;2023-11-18T06:58:50;93880.66;;;1.99
76895;BMP280;65855;42.030;13.078;2023-11-18T07:01:16;93884.34;;;2.46
76895;BMP280;65855;42.030;13.078;2023-11-18T07:03:42;93907.91;;;2.83
76895;BMP280;65855;42.030;13.078;2023-11-18T07:06:09;93925.66;;;3.94
76895;BMP280;65855;42.030;13.078;2023-11-18T07:08:38;93946.66;;;3.34
76895;BMP280;65855;42.030;13.078;2023-11-18T07:11:04;93957.97;;;3.25
76895;BMP280;65855;42.030;13.078;2023-11-18T07:13:31;93960.19;;;3.54
76895;BMP280;65855;42.030;13.078;2023-11-18T07:15:59;93972.00;;;3.74
76895;BMP280;65855;42.030;13.078;2023-11-18T07:18:24;93984.91;;;4.20
76895;BMP280;65855;42.030;13.078;2023-11-18T07:20:50;93988.09;;;4.36
76895;BMP280;65855;42.030;13.078;2023-11-18T07:23:19;94016.81;;;4.55
76895;BMP280;65855;42.030;13.078;2023-11-18T07:25:45;94041.38;;;4.63
76895;BMP280;65855;42.030;13.078;2023-11-18T07:28:11;94046.19;;;4.85
76895;BMP280;65855;42.030;13.078;2023-11-18T07:30:37;94054.22;;;5.29
76895;BMP280;65855;42.030;13.078;2023-11-18T07:33:03;94064.81;;;5.62
76895;BMP280;65855;42.030;13.078;2023-11-18T07:35:28;94066.63;;;5.46
76895;BMP280;65855;42.030;13.078;2023-11-18T07:37:55;94080.19;;;6.27
76895;BMP280;65855;42.030;13.078;2023-11-18T07:40:22;94081.72;;;6.64
76895;BMP280;65855;42.030;13.078;2023-11-18T07:42:56;94099.69;;;6.92
76895;BMP280;65855;42.030;13.078;2023-11-18T07:45:22;94101.72;;;6.28
76895;BMP280;65855;42.030;13.078;2023-11-18T07:47:50;94091.09;;;5.86
76895;BMP280;65855;42.030;13.078;2023-11-18T07:50:17;94101.25;;;6.31
76895;BMP280;65855;42.030;13.078;2023-11-18T07:52:45;94103.50;;;6.64
76895;BMP280;65855;42.030;13.078;2023-11-18T07:55:10;94110.94;;;6.54
76895;BMP280;65855;42.030;13.078;2023-11-18T07:57:37;94116.91;;;6.48
76895;BMP280;65855;42.030;13.078;2023-11-18T08:00:03;94119.44;;;6.84
76895;BMP280;65855;42.030;13.078;2023-11-18T08:02:38;94116.72;;;8.20
76895;BMP280;65855;42.030;13.078;2023-11-18T08:05:04;94124.25;;;8.15
76895;BMP280;65855;42.030;13.078;2023-11-18T08:07:35;94114.06;;;7.62
76895;BMP280;65855;42.030;13.078;2023-11-18T08:10:02;94134.84;;;8.76
76895;BMP280;65855;42.030;13.078;2023-11-18T08:12:30;94137.22;;;7.88
76895;BMP280;65855;42.030;13.078;2023-11-18T08:14:55;94127.59;;;7.61
76895;BMP280;65855;42.030;13.078;2023-11-18T08:17:22;94129.06;;;7.52
76895;BMP280;65855;42.030;13.078;2023-11-18T08:19:48;94133.56;;;7.50
76895;BMP280;65855;42.030;13.078;2023-11-18T08:22:15;94129.56;;;8.78
76895;BMP280;65855;42.030;13.078;2023-11-18T08:24:44;94129.50;;;10.74
76895;BMP280;65855;42.030;13.078;2023-11-18T08:27:09;94139.28;;;9.28
76895;BMP280;65855;42.030;13.078;2023-11-18T08:29:35;94136.28;;;9.26
76895;BMP280;65855;42.030;13.078;2023-11-18T08:32:00;94130.56;;;8.42
76895;BMP280;65855;42.030;13.078;2023-11-18T08:34:26;94126.28;;;8.72
76895;BMP280;65855;42.030;13.078;2023-11-18T08:36:52;94125.41;;;10.03
76895;BMP280;65855;42.030;13.078;2023-11-18T08:39:17;94129.44;;;9.36
76895;BMP280;65855;42.030;13.078;2023-11-18T08:41:47;94130.25;;;9.94
76895;BMP280;65855;42.030;13.078;2023-11-18T08:44:15;94138.09;;;9.88
76895;BMP280;65855;42.030;13.078;2023-11-18T08:46:41;94134.88;;;9.73
76895;BMP280;65855;42.030;13.078;2023-11-18T08:49:08;94134.25;;;12.00
76895;BMP280;65855;42.030;13.078;2023-11-18T08:51:37;94135.94;;;14.84
76895;BMP280;65855;42.030;13.078;2023-11-18T08:54:04;94129.06;;;15.66
76895;BMP280;65855;42.030;13.078;2023-11-18T08:56:50;94129.88;;;16.46
76895;BMP280;65855;42.030;13.078;2023-11-18T08:59:20;94136.97;;;17.28
76895;BMP280;65855;42.030;13.078;2023-11-18T09:01:53;94146.38;;;17.80
76895;BMP280;65855;42.030;13.078;2023-11-18T09:04:24;94145.81;;;18.12
76895;BMP280;65855;42.030;13.078;2023-11-18T09:06:50;94145.06;;;18.60
76895;BMP280;65855;42.030;13.078;2023-11-18T09:09:20;94142.56;;;16.88
76895;BMP280;65855;42.030;13.078;2023-11-18T09:11:53;94141.34;;;17.10
76895;BMP280;65855;42.030;13.078;2023-11-18T09:14:19;94152.59;;;16.84
76895;BMP280;65855;42.030;13.078;2023-11-18T09:16:44;94146.59;;;18.04
76895;BMP280;65855;42.030;13.078;2023-11-18T09:19:10;94134.75;;;15.03
76895;BMP280;65855;42.030;13.078;2023-11-18T09:21:36;94145.38;;;12.00
76895;BMP280;65855;42.030;13.078;2023-11-18T09:24:02;94156.09;;;11.18
76895;BMP280;65855;42.030;13.078;2023-11-18T09:26:33;94145.25;;;12.27
76895;BMP280;65855;42.030;13.078;2023-11-18T09:28:58;94152.16;;;13.66
76895;BMP280;65855;42.030;13.078;2023-11-18T09:31:26;94153.66;;;14.06
76895;BMP280;65855;42.030;13.078;2023-11-18T09:33:52;94149.19;;;12.88
76895;BMP280;65855;42.030;13.078;2023-11-18T09:36:18;94154.22;;;13.90
76895;BMP280;65855;42.030;13.078;2023-11-18T09:38:44;94147.06;;;15.78
76895;BMP280;65855;42.030;13.078;2023-11-18T09:41:13;94153.59;;;15.11
76895;BMP280;65855;42.030;13.078;2023-11-18T09:43:40;94142.00;;;15.94
76895;BMP280;65855;42.030;13.078;2023-11-18T09:46:26;94157.69;;;13.68
76895;BMP280;65855;42.030;13.078;2023-11-18T09:51:43;94158.53;;;12.74
76895;BMP280;65855;42.030;13.078;2023-11-18T09:54:27;94161.94;;;13.98
76895;BMP280;65855;42.030;13.078;2023-11-18T09:57:00;94163.50;;;15.42
76895;BMP280;65855;42.030;13.078;2023-11-18T10:02:20;94152.28;;;18.98
76895;BMP280;65855;42.030;13.078;2023-11-18T10:04:48;94151.25;;;19.11
76895;BMP280;65855;42.030;13.078;2023-11-18T10:07:16;94146.91;;;20.37
76895;BMP280;65855;42.030;13.078;2023-11-18T10:09:44;94153.75;;;20.33
76895;BMP280;65855;42.030;13.078;2023-11-18T10:12:11;94161.88;;;20.86
76895;BMP280;65855;42.030;13.078;2023-11-18T10:14:42;94146.13;;;21.68
76895;BMP280;65855;42.030;13.078;2023-11-18T10:17:11;94129.25;;;20.98
76895;BMP280;65855;42.030;13.078;2023-11-18T10:19:58;94139.06;;;21.65
76895;BMP280;65855;42.030;13.078;2023-11-18T10:22:37;94141.59;;;21.08
76895;BMP280;65855;42.030;13.078;2023-11-18T10:25:03;94135.03;;;20.95
76895;BMP280;65855;42.030;13.078;2023-11-18T10:27:31;94130.44;;;22.86
76895;BMP280;65855;42.030;13.078;2023-11-18T10:30:04;94119.78;;;23.06
76895;BMP280;65855;42.030;13.078;2023-11-18T10:32:29;94133.28;;;21.68
76895;BMP280;65855;42.030;13.078;2023-11-18T10:34:58;94124.56;;;21.72
76895;BMP280;65855;42.030;13.078;2023-11-18T10:37:25;94119.88;;;21.74
76895;BMP280;65855;42.030;13.078;2023-11-18T10:39:51;94111.53;;;20.04
76895;BMP280;65855;42.030;13.078;2023-11-18T10:42:17;94106.78;;;21.07
76895;BMP280;65855;42.030;13.078;2023-11-18T10:44:56;94110.22;;;20.22
76895;BMP280;65855;42.030;13.078;2023-11-18T10:47:24;94108.28;;;20.30
76895;BMP280;65855;42.030;13.078;2023-11-18T10:49:51;94109.78;;;16.36
76895;BMP280;65855;42.030;13.078;2023-11-18T10:52:16;94118.03;;;16.67
76895;BMP280;65855;42.030;13.078;2023-11-18T10:54:52;94115.75;;;18.17
76895;BMP280;65855;42.030;13.078;2023-11-18T10:57:19;94114.22;;;18.85
76895;BMP280;65855;42.030;13.078;2023-11-18T11:00:03;94112.34;;;20.31
76895;BMP280;65855;42.030;13.078;2023-11-18T11:02:38;94111.47;;;21.32
76895;BMP280;65855;42.030;13.078;2023-11-18T11:05:07;94104.78;;;20.47
76895;BMP280;65855;42.030;13.078;2023-11-18T11:07:32;94107.47;;;20.15
76895;BMP280;65855;42.030;13.078;2023-11-18T11:10:01;94115.16;;;19.79
76895;BMP280;65855;42.030;13.078;2023-11-18T11:12:33;94107.25;;;20.20
76895;BMP280;65855;42.030;13.078;2023-11-18T11:15:18;94093.66;;;18.41
76895;BMP280;65855;42.030;13.078;2023-11-18T11:17:51;94098.94;;;20.11
76895;BMP280;65855;42.030;13.078;2023-11-18T11:20:25;94095.59;;;20.99
76895;BMP280;65855;42.030;13.078;2023-11-18T11:23:05;94095.81;;;21.97
76895;BMP280;65855;42.030;13.078;2023-11-18T11:28:15;94096.81;;;22.42
76895;BMP280;65855;42.030;13.078;2023-11-18T11:30:45;94092.72;;;23.12
76895;BMP280;65855;42.030;13.078;2023-11-18T11:33:16;94096.06;;;23.79
76895;BMP280;65855;42.030;13.078;2023-11-18T11:35:48;94091.34;;;23.84
76895;BMP280;65855;42.030;13.078;2023-11-18T11:38:15;94080.19;;;23.99
76895;BMP280;65855;42.030;13.078;2023-11-18T11:40:42;94074.94;;;24.17
76895;BMP280;65855;42.030;13.078;2023-11-18T11:43:10;94079.56;;;23.39
76895;BMP280;65855;42.030;13.078;2023-11-18T11:45:49;94080.00;;;25.33
76895;BMP280;65855;42.030;13.078;2023-11-18T11:48:17;94081.19;;;25.39
76895;BMP280;65855;42.030;13.078;2023-11-18T11:50:59;94092.91;;;24.68
76895;BMP280;65855;42.030;13.078;2023-11-18T11:53:30;94094.50;;;24.18
76895;BMP280;65855;42.030;13.078;2023-11-18T11:56:01;94097.50;;;24.78
76895;BMP280;65855;42.030;13.078;2023-11-18T11:58:38;94101.84;;;24.45
76895;BMP280;65855;42.030;13.078;2023-11-18T12:01:35;94108.56;;;25.14
76895;BMP280;65855;42.030;13.078;2023-11-18T12:04:08;94106.19;;;24.96
76895;BMP280;65855;42.030;13.078;2023-11-18T12:06:46;94090.63;;;24.89
76895;BMP280;65855;42.030;13.078;2023-11-18T12:09:13;94094.88;;;25.43
76895;BMP280;65855;42.030;13.078;2023-11-18T12:11:48;94086.09;;;25.51
76895;BMP280;65855;42.030;13.078;2023-11-18T12:14:15;94092.31;;;25.89
76895;BMP280;65855;42.030;13.078;2023-11-18T12:17:07;94091.97;;;25.94
76895;BMP280;65855;42.030;13.078;2023-11-18T12:19:38;94086.19;;;25.61
76895;BMP280;65855;42.030;13.078;2023-11-18T12:22:15;94080.75;;;25.76
76895;BMP280;65855;42.030;13.078;2023-11-18T12:33:06;94096.28;;;22.33
76895;BMP280;65855;42.030;13.078;2023-11-18T12:41:35;94100.53;;;25.58
76895;BMP280;65855;42.030;13.078;2023-11-18T12:44:30;94107.69;;;26.88
76895;BMP280;65855;42.030;13.078;2023-11-18T12:47:01;94109.75;;;27.63
76895;BMP280;65855;42.030;13.078;2023-11-18T12:49:48;94112.38;;;27.83
76895;BMP280;65855;42.030;13.078;2023-11-18T12:52:21;94112.28;;;28.66
76895;BMP280;65855;42.030;13.078;2023-11-18T12:54:47;94107.91;;;28.25
76895;BMP280;65855;42.030;13.078;2023-11-18T12:57:36;94098.88;;;28.95
76895;BMP280;65855;42.030;13.078;2023-11-18T13:00:04;94104.63;;;29.33
76895;BMP280;65855;42.030;13.078;2023-11-18T13:02:31;94109.94;;;29.09
76895;BMP280;65855;42.030;13.078;2023-11-18T13:04:57;94111.56;;;28.65
76895;BMP280;65855;42.030;13.078;2023-11-18T13:07:22;94109.56;;;29.10
76895;BMP280;65855;42.030;13.078;2023-11-18T13:09:50;94107.16;;;28.28
76895;BMP280;65855;42.030;13.078;2023-11-18T13:12:16;94104.91;;;25.97
76895;BMP280;65855;42.030;13.078;2023-11-18T13:14:45;94109.38;;;28.33
76895;BMP280;65855;42.030;13.078;2023-11-18T13:17:15;94110.41;;;26.42
76895;BMP280;65855;42.030;13.078;2023-11-18T13:19:42;94108.28;;;28.20
76895;BMP280;65855;42.030;13.078;2023-11-18T13:22:11;94112.09;;;23.47
76895;BMP280;65855;42.030;13.078;2023-11-18T13:24:38;94111.63;;;25.23
76895;BMP280;65855;42.030;13.078;2023-11-18T13:27:07;94105.28;;;26.52
76895;BMP280;65855;42.030;13.078;2023-11-18T13:29:35;94109.84;;;26.72
76895;BMP280;65855;42.030;13.078;2023-11-18T13:32:01;94109.91;;;23.93
76895;BMP280;65855;42.030;13.078;2023-11-18T13:34:30;94112.63;;;25.48
76895;BMP280;65855;42.030;13.078;2023-11-18T13:36:58;94104.66;;;24.37
76895;BMP280;65855;42.030;13.078;2023-11-18T13:39:24;94110.47;;;25.53
76895;BMP280;65855;42.030;13.078;2023-11-18T13:41:53;94110.91;;;27.86
76895;BMP280;65855;42.030;13.078;2023-11-18T13:44:34;94119.63;;;27.16
76895;BMP280;65855;42.030;13.078;2023-11-18T13:47:00;94142.22;;;26.46
76895;BMP280;65855;42.030;13.078;2023-11-18T13:49:29;94145.06;;;25.13
76895;BMP280;65855;42.030;13.078;2023-11-18T13:51:55;94135.94;;;25.97
76895;BMP280;65855;42.030;13.078;2023-11-18T13:54:22;94150.91;;;24.05
76895;BMP280;65855;42.030;13.078;2023-11-18T13:56:48;94157.66;;;24.34
76895;BMP280;65855;42.030;13.078;2023-11-18T13:59:14;94158.53;;;25.64
76895;BMP280;65855;42.030;13.078;2023-11-18T14:01:40;94146.22;;;25.48
76895;BMP280;65855;42.030;13.078;2023-11-18T14:04:05;94153.59;;;26.34
76895;BMP280;65855;42.030;13.078;2023-11-18T14:06:32;94159.13;;;25.48
76895;BMP280;65855;42.030;13.078;2023-11-18T14:08:57;94165.09;;;23.48
76895;BMP280;65855;42.030;13.078;2023-11-18T14:11:22;94157.38;;;23.11
76895;BMP280;65855;42.030;13.078;2023-11-18T14:13:49;94167.28;;;23.68
76895;BMP280;65855;42.030;13.078;2023-11-18T14:16:17;94164.66;;;23.46
76895;BMP280;65855;42.030;13.078;2023-11-18T14:18:45;94157.41;;;24.17
76895;BMP280;65855;42.030;13.078;2023-11-18T14:21:11;94161.81;;;24.42
76895;BMP280;65855;42.030;13.078;2023-11-18T14:23:39;94161.72;;;24.86
76895;BMP280;65855;42.030;13.078;2023-11-18T14:26:05;94167.59;;;24.83
76895;BMP280;65855;42.030;13.078;2023-11-18T14:31:00;94172.69;;;18.58
76895;BMP280;65855;42.030;13.078;2023-11-18T14:33:25;94187.97;;;15.68
76895;BMP280;65855;42.030;13.078;2023-11-18T14:35:51;94192.53;;;14.85
76895;BMP280;65855;42.030;13.078;2023-11-18T14:38:16;94192.03;;;14.13
76895;BMP280;65855;42.030;13.078;2023-11-18T14:40:45;94186.34;;;13.37